EHGG/GRQ METAR and TAF weather

Enter ICAO airport designator
Station Type Date Time Source
EHGG METAR 2021/05/11 17:25 UTC NOAA

EHGG 111725Z AUTO 05008KT 9999 OVC015 13/11 Q1008 NOSIG


Station Type Date Time Source
EHGG Decoded METAR 2021/05/11 17:25 UTC NOAA

Groningen Airport Eelde, Netherlands (EHGG) 53-08N 006-35E 4M
May 11, 2021 - 01:25 PM EDT / 2021.05.11 1725 UTC
Wind: from the NE (050 degrees) at 9 MPH (8 KT):0
Visibility: greater than 7 mile(s):0
Sky conditions: overcast
Temperature: 55 F (13 C)
Dew Point: 51 F (11 C)
Relative Humidity: 87%
Pressure (altimeter): 29.77 in. Hg (1008 hPa)
ob: EHGG 111725Z AUTO 05008KT 9999 OVC015 13/11 Q1008 NOSIG
cycle: 17

Station Type Date Time Source
EHGG TAF 2021/05/11 18:27 UTC NOAA

TAF EHGG 111713Z 1118/1224 04007KT 9999 BKN017 PROB30
TEMPO 1118/1121 7000 -SHRA -RADZ FEW050CB
BECMG 1119/1122 4000 BR BKN014 PROB30 1119/1206 2000 DZRA BKN006
BECMG 1204/1207 26011KT 9999 NSW SCT015
BECMG 1215/1218 31005KT

Example: see airport list